ИФК-44

СКИДКИ НА СМАРТФОНЫ!

Карта отелей и гостиниц, располагающихся рядом с аэропортом ИФК-44 :

ИФК-44
Кострома
Костромская область 57° 46' 30.72" N, 41° 0' 26.3412" E
ИФК-44
Кострома
Костромская область 57° 46' 30.72" N, 41° 0' 26.3412" E
Код аэродрома ИКАО
HEJ6
Код аэродрома RU
ХЕЙ6
Координаты
N57.77520° E041.00732°
Превышение над уровнем моря
132
Основная полоса
08/26
Курс магнитный
077,2/257,2
Длина основной ВПП
25
Ширина основной ВПП
25
Покрытие основной ВПП
Твёрдое (асфальтобетон)
Освещение ВПП
Постоянное
Тип: 
Вертодром
Класс аэродрома: 
Принадлежность: 
АОН
Статус: 
Действующий
Сайт: 
E-mail аэродрома: 
akson@akson.ru
Страна: 
Россия
Регион: 
Костромская область
Город: 
Кострома
Дополнительная информация: 
Владелец ПП: ЗАО "ИФК-44". АНППП зарегистрирован в МТУ ВТ ЦР ФАВТ в 2014г.

Скидки на навигаторы!

Найти трансфер

С помощью этой формы Вы можете найти трансфер из аэропорта ИФК-44 в город, аэропорт или вокзал:

Погода в аэропортах:

Авиационная погода в Яссах

Регион: 
Погода METAR: 
LRIA 190400Z 25004KT 230V290 4000 BR NSC 19/19 Q1012
Время наблюдения
2022-08-19T04:00:00Z
Температура C
19.0
Точка росы
19.0
Направление ветра
250
Скорость ветра (узлы)
4
Метео видимость
2.49
Облачность
CLR
Нижняя граница облачности (футы)
Явления погоды
BR
Условия полета
IFR
CLR — нет облаков ниже 3000 м
BR – дымка (видимость от 1 до 9 км);

Авиационная погода в Миккели

Регион: 
Погода METAR: 
EFMI 190420Z AUTO 12003KT 9999 VCSH //////CB 20/19 Q1020
Время наблюдения
2022-08-19T04:20:00Z
Температура C
20.0
Точка росы
19.0
Направление ветра
120
Скорость ветра (узлы)
3
Метео видимость
6.21
Облачность
Нижняя граница облачности (футы)
Явления погоды
VCSH
Условия полета

Авиационная погода в Мирном

Регион: 
Погода METAR: 
UERR 190400Z 01003MPS 9999 -DZ OVC003 11/10 Q0998 R25/290255 NOSIG RMK QBB100 QFE718/0958
Время наблюдения
2022-08-19T04:00:00Z
Температура C
11.0
Точка росы
10.0
Направление ветра
10
Скорость ветра (узлы)
6
Метео видимость
6.21
Облачность
OVC
Нижняя граница облачности (футы)
300
Явления погоды
-DZ
Условия полета
LIFR
Аэропорт подробнее: 
OVC – сплошная облачность;
-DZ – слабая морось;

Авиационная погода в Кневичи

Регион: 
Погода METAR: 
UHWW 190400Z 18007G12MPS 9999 -SHRA SCT015 BKN040CB 24/22 Q0997 R25L/250060 NOSIG RMK QFE747
Время наблюдения
2022-08-19T04:00:00Z
Температура C
24.0
Точка росы
22.0
Направление ветра
180
Скорость ветра (узлы)
14
Метео видимость
6.21
Облачность
SCT
BKN
Нижняя граница облачности (футы)
1500
4000
Явления погоды
-SHRA
Условия полета
VFR
Аэропорт подробнее: 
SCT – разбросанная отдельная облачность; BKN – значительная (рассеянная, разорванная) облачность;
-SHRA - слабый ливневой дождь;